Latest Weather Observations for Low Rocky Point

IDT60801

Issued at 4:35 pm EST Thursday 17 April 2014 (issued every 30 minutes, with the page automatically refreshed every 10 minutes)

About weather observations | Map of weather stations | Latest weather observations for TAS | Other Formats
Station Details ID: 097080 Name: LOW ROCKY POINT Lat: -42.98 Lon: 145.50 Height: 34.0 m
Data from the previous 72 hours. | See also: Recent months at Low Rocky Point
Date/Time
EST
Temp
°C
App
Temp
°C
Dew
Point
Rel
Hum
%
Delta-T
°C
Wind Press
QNH
hPa
Press
MSL
hPa
Rain
since 9 am
mm
Dir
 
Spd
km/h
Gust
km/h
Spd
kts
Gust
kts
17/04:30pm 16.6 13.2 13.7 83 1.6 NNW 24 30 13 16 1016.2 - 0.0
17/04:00pm 17.3 13.9 13.8 80 2.0 NNW 24 30 13 16 1016.4 1016.4 0.0
17/03:30pm 17.8 13.2 13.5 76 2.4 NW 30 35 16 19 1016.6 - 0.0
17/03:00pm 17.8 12.9 12.7 72 2.8 NW 30 35 16 19 1016.7 1016.7 0.0
17/02:30pm 18.0 12.8 12.9 72 2.9 NW 32 35 17 19 1016.9 - 0.0
17/02:00pm 18.1 13.3 12.8 71 3.0 NNW 30 35 16 19 1017.0 1017.0 0.0
17/01:30pm 17.8 12.1 11.8 68 3.3 NNW 33 41 18 22 1017.4 - 0.0
17/01:00pm 17.8 11.7 11.8 68 3.3 NNW 35 43 19 23 1017.8 1017.8 0.0
17/12:30pm 17.8 12.1 11.8 68 3.3 NNW 33 41 18 22 1018.4 - 0.0
17/12:00pm 18.2 13.5 12.0 67 3.4 NW 28 32 15 17 1018.9 1018.9 0.0
17/11:30am 17.7 12.0 11.3 66 3.5 NW 32 39 17 21 1019.1 - 0.0
17/11:00am 17.6 13.0 11.2 66 3.5 NNW 26 30 14 16 1019.3 1019.3 0.0
17/10:30am 17.6 14.2 11.4 67 3.4 NNW 20 30 11 16 1019.4 - 0.0
17/10:00am 17.0 13.2 11.3 69 3.1 N 22 30 12 16 1019.4 1019.4 0.0
17/09:30am 16.2 12.8 11.4 73 2.6 N 20 28 11 15 1019.7 - 0.0
17/09:00am 14.6 11.4 11.4 81 1.7 N 19 24 10 13 1019.9 1019.9 0.0
17/08:30am 12.7 9.2 10.8 88 1.0 NNE 20 28 11 15 1019.7 - 0.0
17/08:00am 11.3 6.8 10.0 92 0.7 NNE 24 30 13 16 1019.4 1019.4 0.0
17/07:30am 10.3 6.0 9.5 95 0.4 NNE 22 26 12 14 1019.4 - 0.0
17/07:00am 10.1 5.5 9.6 97 0.2 NNE 24 28 13 15 1019.3 1019.3 0.0
17/06:30am 10.1 5.5 9.8 98 0.2 NNE 24 30 13 16 1019.1 - 0.0
17/06:00am 10.4 6.3 10.1 98 0.2 NNE 22 28 12 15 1019.2 1019.2 0.0
17/05:30am 10.5 6.4 10.2 98 0.2 NNE 22 26 12 14 1019.4 - 0.0
17/05:00am 10.6 6.9 10.1 97 0.3 NNE 20 26 11 14 1019.4 1019.4 0.0
17/04:30am 10.8 7.1 10.3 97 0.3 NNE 20 24 11 13 1019.5 - 0.0
17/04:00am 11.1 7.2 10.8 98 0.2 NNE 22 26 12 14 1019.3 1019.3 0.0
17/03:30am 11.0 7.0 10.5 97 0.3 NNE 22 24 12 13 1019.3 - 0.0
17/03:00am 11.2 7.6 10.6 96 0.3 NNE 20 24 11 13 1019.3 1019.3 0.0
17/02:30am 11.7 8.3 11.1 96 0.3 NNE 20 22 11 12 1019.3 - 0.0
17/02:00am 11.9 8.5 11.3 96 0.3 NNE 20 24 11 13 1019.4 1019.4 0.0
17/01:30am 12.4 9.1 11.6 95 0.4 NNE 20 22 11 12 1019.6 - 0.0
17/01:00am 12.5 9.2 11.6 94 0.5 NNE 20 24 11 13 1019.6 1019.6 0.0
17/12:30am 12.8 9.8 11.9 94 0.5 NNE 19 22 10 12 1019.7 - 0.0
17/12:00am 13.0 10.4 11.9 93 0.6 NNE 17 20 9 11 1019.8 1019.8 0.0
 
Date/Time
EST
Temp
°C
App
Temp
°C
Dew
Point
Rel
Hum
%
Delta-T
°C
Wind Press
QNH
hPa
Press
MSL
hPa
Rain
since 9 am
mm
Dir
 
Spd
km/h
Gust
km/h
Spd
kts
Gust
kts
16/11:30pm 13.3 10.8 12.2 93 0.6 NNE 17 20 9 11 1020.0 - 0.0
16/11:00pm 13.3 11.1 12.2 93 0.6 NNE 15 19 8 10 1020.3 1020.3 0.0
16/10:30pm 13.2 10.6 12.1 93 0.6 NNE 17 20 9 11 1020.2 - 0.0
16/10:00pm 13.4 10.8 12.1 92 0.7 NNE 17 20 9 11 1020.1 1020.1 0.0
16/09:30pm 13.5 11.0 12.2 92 0.7 NNE 17 19 9 10 1020.1 - 0.0
16/09:00pm 13.5 11.3 12.2 92 0.7 N 15 17 8 9 1020.0 1020.0 0.0
16/08:30pm 13.3 11.5 12.2 93 0.6 N 13 17 7 9 1020.0 - 0.0
16/08:00pm 13.2 11.4 12.1 93 0.6 N 13 17 7 9 1019.8 1019.8 0.0
16/07:30pm 13.8 12.1 12.4 91 0.8 N 13 17 7 9 1019.8 - 0.0
16/07:00pm 14.1 12.3 12.1 88 1.1 N 13 17 7 9 1019.7 1019.7 0.0
16/06:30pm 14.4 10.9 12.3 87 1.1 NNW 22 26 12 14 1019.7 - 0.0
16/06:00pm 14.5 10.3 12.5 88 1.1 NW 26 30 14 16 1019.6 1019.6 0.0
16/05:30pm 14.4 10.7 12.6 89 1.0 NW 24 32 13 17 1019.9 - 0.0
16/05:00pm 14.6 9.1 12.6 88 1.1 WNW 33 41 18 22 1019.7 1019.7 0.0
16/04:30pm 14.8 8.7 13.0 89 1.0 WNW 37 44 20 24 1019.5 - 0.0
16/04:00pm 15.3 9.6 13.0 86 1.3 WNW 35 43 19 23 1019.6 1019.6 0.0
16/03:30pm 16.1 10.7 12.1 77 2.2 WNW 32 41 17 22 1019.5 - 0.0
16/03:00pm 16.2 11.5 12.0 76 2.3 NW 28 33 15 18 1019.4 1019.4 0.0
16/02:30pm 16.2 11.8 11.6 74 2.5 NW 26 32 14 17 1019.3 - 0.0
16/02:00pm 16.8 13.3 12.3 75 2.5 NW 22 26 12 14 1019.3 1019.3 0.0
16/01:30pm 16.6 12.8 11.3 71 2.9 NW 22 28 12 15 1019.5 - 0.0
16/01:00pm 17.1 14.1 12.0 72 2.8 NW 19 22 10 12 1019.8 1019.8 0.0
16/12:30pm 16.9 13.7 12.0 73 2.7 NW 20 24 11 13 1020.2 - 0.0
16/12:00pm 16.2 13.2 11.8 75 2.4 NW 19 24 10 13 1020.7 1020.7 0.0
16/11:30am 16.1 10.8 11.1 72 2.7 NW 30 37 16 20 1021.0 - 0.0
16/11:00am 17.2 13.9 11.0 67 3.3 NNW 19 24 10 13 1020.9 1020.9 0.0
16/10:30am 17.8 14.8 10.7 63 3.8 N 17 20 9 11 1021.0 - 0.0
16/10:00am 16.9 13.8 10.3 65 3.5 NNE 17 24 9 13 1021.2 1021.2 0.0
16/09:30am 15.9 12.4 10.2 69 3.0 NNE 19 26 10 14 1021.5 - 0.0
16/09:00am 14.0 10.0 9.2 73 2.4 NNE 20 26 11 14 1021.5 1021.5 0.0
16/08:30am 13.6 9.2 8.9 73 2.4 NE 22 30 12 16 1021.5 - 0.0
16/08:00am 12.1 7.1 8.2 77 1.9 NE 24 30 13 16 1021.5 1021.5 0.0
16/07:30am 10.6 5.5 7.7 82 1.4 NE 24 30 13 16 1021.5 - 0.0
16/07:00am 10.5 5.4 7.6 82 1.4 NE 24 30 13 16 1021.5 1021.5 0.0
16/06:30am 10.5 5.3 7.4 81 1.5 NNE 24 28 13 15 1021.4 - 0.0
16/06:00am 10.5 5.4 7.6 82 1.4 NNE 24 28 13 15 1021.4 1021.4 0.0
16/05:30am 10.3 5.1 7.4 82 1.4 NE 24 30 13 16 1021.4 - 0.0
16/05:00am 10.5 5.3 7.2 80 1.6 NNE 24 28 13 15 1021.5 1021.5 0.0
16/04:30am 10.8 6.0 7.3 79 1.7 NE 22 26 12 14 1021.6 - 0.0
16/04:00am 10.9 6.1 7.4 79 1.7 NNE 22 26 12 14 1021.7 1021.7 0.0
16/03:30am 11.3 6.6 7.8 79 1.7 NNE 22 26 12 14 1021.9 - 0.0
16/03:00am 11.1 6.8 8.0 81 1.5 NNE 20 24 11 13 1022.1 1022.1 0.0
16/02:30am 11.4 7.2 8.1 80 1.6 NNE 20 24 11 13 1022.5 - 0.0
16/02:00am 11.4 7.1 7.9 79 1.7 NNE 20 24 11 13 1022.8 1022.8 0.0
16/01:30am 11.8 7.6 8.1 78 1.8 NNE 20 24 11 13 1023.1 - 0.0
16/01:00am 11.6 7.6 8.3 80 1.6 NNE 19 24 10 13 1023.3 1023.3 0.0
16/12:30am 11.6 7.5 8.5 81 1.5 NNE 20 24 11 13 1023.4 - 0.0
16/12:00am 11.5 7.3 8.4 81 1.5 NNE 20 24 11 13 1023.3 1023.3 0.0
 
Date/Time
EST
Temp
°C
App
Temp
°C
Dew
Point
Rel
Hum
%
Delta-T
°C
Wind Press
QNH
hPa
Press
MSL
hPa
Rain
since 9 am
mm
Dir
 
Spd
km/h
Gust
km/h
Spd
kts
Gust
kts
15/11:30pm 11.8 7.7 8.6 81 1.6 NNE 20 24 11 13 1023.6 - 0.0
15/11:00pm 11.6 7.2 8.8 83 1.4 NNE 22 26 12 14 1023.8 1023.8 0.0
15/10:30pm 11.7 7.7 8.9 83 1.4 NNE 20 22 11 12 1023.9 - 0.0
15/10:00pm 12.0 7.9 8.8 81 1.6 NNE 20 24 11 13 1023.9 1023.9 0.0
15/09:30pm 12.3 8.9 9.3 82 1.5 N 17 20 9 11 1024.0 - 0.0
15/09:00pm 12.3 8.4 9.5 83 1.4 NNE 20 24 11 13 1023.6 1023.6 0.0
15/08:30pm 12.4 8.7 10.0 85 1.2 NNE 20 24 11 13 1023.4 - 0.0
15/08:00pm 12.5 9.7 10.0 85 1.3 NE 15 19 8 10 1023.3 1023.3 0.0
15/07:30pm 12.8 10.9 10.5 86 1.2 E 11 11 6 6 1023.4 - 0.0
15/07:00pm 13.6 11.4 10.9 84 1.4 SE 13 17 7 9 1023.5 1023.5 0.0
15/06:30pm 14.0 11.0 10.8 81 1.7 SSE 17 22 9 12 1023.3 - 0.0
15/06:00pm 14.1 10.5 10.5 79 1.9 SE 20 24 11 13 1023.1 1023.1 0.0
15/05:30pm 14.6 10.6 10.4 76 2.2 SSE 22 30 12 16 1023.0 - 0.0
15/05:00pm 15.1 10.7 10.5 74 2.4 SSE 24 30 13 16 1022.8 1022.8 0.0
15/04:30pm 15.9 11.8 11.3 74 2.5 SSE 24 32 13 17 1022.9 - 0.0
15/04:00pm 15.8 12.0 11.2 74 2.5 SSE 22 30 12 16 1023.0 1023.0 0.0
15/03:30pm 16.7 13.3 11.2 70 3.0 SSE 20 28 11 15 1023.2 - 0.0
15/03:00pm 16.4 13.0 11.1 71 2.8 SSE 20 26 11 14 1023.3 1023.3 0.0
15/02:30pm 16.8 13.3 10.9 68 3.2 SSE 20 26 11 14 1023.6 - 0.0
15/02:00pm 17.2 13.4 11.2 68 3.2 SSE 22 30 12 16 1023.7 1023.7 0.0
15/01:30pm 17.8 14.6 11.8 68 3.3 SSE 20 26 11 14 1023.8 - 0.0
15/01:00pm 16.8 13.2 10.6 67 3.3 SSE 20 28 11 15 1024.2 1024.2 0.0
15/12:30pm 15.7 12.3 10.5 71 2.8 SSE 19 22 10 12 1024.6 - 0.0
15/12:00pm 16.2 12.9 10.9 71 2.8 SSE 19 24 10 13 1025.0 1025.0 0.0
15/11:30am 15.8 13.1 10.3 70 2.9 SSE 15 20 8 11 1025.1 - 0.0
15/11:00am 16.3 13.8 11.2 72 2.7 SE 15 19 8 10 1025.5 1025.5 0.0
15/10:30am 15.2 12.5 10.4 73 2.5 SE 15 20 8 11 1025.5 - 0.0
15/10:00am 14.3 11.5 10.1 76 2.2 SE 15 20 8 11 1025.6 1025.6 0.0
15/09:30am 13.5 10.3 9.9 79 1.9 SE 17 20 9 11 1025.6 - 0.0
15/09:00am 13.1 9.9 9.9 81 1.6 ESE 17 20 9 11 1025.7 1025.7 1.2
15/08:30am 12.7 9.5 9.9 83 1.4 ESE 17 20 9 11 1025.7 - 1.2
15/08:00am 12.2 9.0 9.8 85 1.2 ESE 17 20 9 11 1025.6 1025.6 1.2
15/07:30am 12.0 8.4 9.7 86 1.2 ESE 19 24 10 13 1025.5 - 1.2
15/07:00am 11.8 8.9 9.7 87 1.1 SE 15 20 8 11 1025.2 1025.2 1.2
15/06:30am 11.6 8.3 9.7 88 1.0 ESE 17 20 9 11 1025.1 - 1.2
15/06:00am 11.7 8.1 9.8 88 1.0 ESE 19 24 10 13 1025.0 1025.0 1.2
15/05:30am 11.8 7.5 9.5 86 1.2 ESE 22 30 12 16 1024.9 - 1.2
15/05:00am 11.9 7.3 9.6 86 1.2 SE 24 32 13 17 1024.8 1024.8 1.2
15/04:30am 12.0 7.5 9.9 87 1.1 SE 24 30 13 16 1025.0 - 1.2
15/04:00am 12.1 7.6 10.0 87 1.1 SE 24 32 13 17 1024.9 1024.9 1.2
15/03:30am 12.1 8.0 10.0 87 1.1 SE 22 28 12 15 1024.9 - 1.2
15/03:00am 12.2 8.4 9.8 85 1.2 ESE 20 28 11 15 1024.9 1024.9 1.2
15/02:30am 12.4 8.7 10.0 85 1.2 SE 20 28 11 15 1025.1 - 1.2
15/02:00am 12.3 8.1 9.7 84 1.3 SE 22 32 12 17 1025.1 1025.1 1.2
15/01:30am 12.4 8.7 10.0 85 1.2 SE 20 28 11 15 1025.2 - 1.2
15/01:00am 12.5 8.0 9.9 84 1.3 SE 24 30 13 16 1025.1 1025.1 1.2
15/12:30am 12.5 8.3 9.9 84 1.3 SE 22 30 12 16 1025.1 - 1.2
15/12:00am 12.4 8.2 9.8 84 1.3 SE 22 30 12 16 1025.1 1025.1 1.2
 
Date/Time
EST
Temp
°C
App
Temp
°C
Dew
Point
Rel
Hum
%
Delta-T
°C
Wind Press
QNH
hPa
Press
MSL
hPa
Rain
since 9 am
mm
Dir
 
Spd
km/h
Gust
km/h
Spd
kts
Gust
kts
14/11:30pm 12.4 7.5 9.8 84 1.3 SE 26 32 14 17 1025.1 - 1.2
14/11:00pm 12.4 7.5 10.0 85 1.2 SE 26 35 14 19 1025.2 1025.2 1.2
14/10:30pm 12.5 6.9 10.0 85 1.3 SE 30 37 16 20 1025.2 - 1.2
14/10:00pm 12.6 7.0 10.1 85 1.3 SE 30 39 16 21 1025.3 1025.3 1.2
14/09:30pm 12.7 6.8 10.6 87 1.1 SE 32 39 17 21 1025.2 - 1.2
14/09:00pm 12.5 7.0 10.6 88 1.0 SE 30 43 16 23 1025.3 1025.3 1.2
14/08:30pm 12.5 6.7 10.7 89 0.9 SE 32 43 17 23 1025.2 - 1.2
14/08:00pm 12.5 6.7 10.7 89 0.9 SE 32 41 17 22 1025.0 1025.0 1.2
14/07:30pm 12.8 7.0 10.9 88 1.0 SSE 32 39 17 21 1025.0 - 1.2
14/07:00pm 12.7 7.0 11.1 90 0.8 SSE 32 41 17 22 1024.9 1024.9 1.2
14/06:30pm 12.5 7.2 11.4 93 0.6 SSE 30 37 16 20 1024.6 - 1.2
14/06:00pm 12.7 7.6 11.9 95 0.4 SSE 30 39 16 21 1024.4 1024.4 1.2
14/05:30pm 12.7 8.4 12.1 96 0.3 SSE 26 35 14 19 1024.3 - 1.2
14/05:00pm 13.0 8.5 12.5 97 0.3 SSE 28 35 15 19 1024.2 1024.2 1.2

Other Formats:

Comma delimited format used in spreadsheet applications
http://www.bom.gov.au/fwo/IDT60801/IDT60801.95961.axf

JavaScript Object Notation format (JSON) in row-major order
http://www.bom.gov.au/fwo/IDT60801/IDT60801.95961.json